logo
Search for airport 
image banner adimage banner adimage banner ad
image banner ad

SEOU - Molaute

Located in , Ecuador

ICAO - , IATA -

Data provided by Airmate  

General information

Coordinates: S0°4'37" W79°8'5"
Elevation is 1801 feet MSL.
Magnetic variation is -4° East
View others Airports in Pichincha

Operational data

Special qualification required
Current time UTC:
Current local time:
Weather at : - ( 0 km )
METAR: YPXM 152248Z AUTO 11009KT 9999 // BKN013 BKN020 OVC032 26/24 Q1013
View NOTAMs / SUP AIP / TFR affecting this airport [VIEW]
Communications frequencies: [VIEW]

Runways:

RWY identifierQFULength (ft)Width (ft)SurfaceLDA (ft)
20200°307384GRAS
0220°307384GRAS

Airport contact information

Address: Ecuador

Satellite view of SEOU